Terminal Aerodrome Forecast
Issued by NWS

Home | Current Version | Previous Version | Text Only | Print | Product List | Glossary On
Versions: 1 2 3 4 5 6 7 8 9 10 11 12 13 14 15
000
FTUS43 KAPX 180500
TAFMBL
TAF
KMBL 180534Z 1806/1906 32003KT P6SM OVC040
      TEMPO 1809/1813 BKN020
     FM181500 34011KT P6SM SCT150
     FM190000 06003KT P6SM SCT200
      AMD LTD TO CLD VIS AND WIND=

USA.gov is the U.S. government's official web portal to all federal, state and local government web resources and services.